Pagina principale
METAR-TAF:

METAR-TAF

Aeroporti :

Aeroporto Internazionale O.R. Tambo

Johannesburg, Sudafrica

latitudine: 26-08S, longitudine: 028-14E, altezza: 1694 m

Osservazione

Il bollettino è stato emesso 34 minuti fa, alle 16:00 UTC
Vento 7 kt da ovest/nord-ovest
Temperature 18°C
Umidità 34%
Pressione 1031 hPa
Visibilità 10 km o più
nessuna nube inferiore a 1500 m e nessun cumulonembo

METAR: FAOR 311600Z 29007KT CAVOK 18/02 Q1031 NOSIG

Ora: 18:34 (16:34 UTC)

Previsione

Il bollettino è stato emesso 6 ore e 34 minuti fa, alle 10:00 UTC
Previsione valida dal 31 alle 12 UTC al 01 alle 18 UTC
Vento 9 kt da sud/sud-ovest
Visibilità 10 km o più
nessuna nube inferiore a 1500 m e nessun cumulonembo
Evoluzione graduale
dal 31 alle 17 UTC al 31 alle 19 UTC
Vento 3 kt da direzioni variabili
Evoluzione graduale
dal 01 alle 07 UTC al 01 alle 09 UTC
Vento 9 kt da sud

TAF: FAOR 311000Z 3112/0118 20009KT CAVOK TX22/0112Z TN07/0104Z BECMG 3117/3119 VRB03KT BECMG 0107/0109 19009KT

Osservazioni e previsioni meteorologiche di più di 4000 aeroporti (messaggi METAR e TAF).

Le stazioni disponibili sono rappresentate dai dischi gialli e rossi sulla carta.

Puntare il mouse per vedere il nome della stazione.

Clicca sopra per visualizzare le osservazioni e previsioni meteorologiche.

Per cambiare la mappa : fare clic sui pulsanti verdi con una croce nera per ingrandire, il pulsante verde con un trattino per diminuire, o sulla freccia verde per le mappe adiacenti.


METAR-TAF: